Orbital elements of FENGYUN 1C DEB
| Launched | 9 May 1999 |
| Flight ended | – |
| Launch site | Taiyuan Space Center, PRC |
| Owner | People's Republic of China |
| NORAD ID | 31364 |
| Date fetched |
Epoch osculation |
Inc. [°] |
Ecc. | RA asc node [hr] |
Arg Peri. [°] |
Mean anom [°] |
Mean motion [rev/day] |
Abs. mag |
| Date fetched |
Epoch osculation |
Inc. [°] |
Ecc. | RA asc node [hr] |
Arg Peri. [°] |
Mean anom [°] |
Mean motion [rev/day] |
Abs. mag |
| 2026 May 04 17:57 | 2026 Apr 30 14:24:18 | 99.2657 | 0.00938 | 16.7081 | 118.2766 | 242.7908 | 14.16235 | – |
| 2026 May 03 17:57 | 2026 Apr 30 14:24:18 | 99.2657 | 0.00938 | 16.7081 | 118.2766 | 242.7908 | 14.16235 | – |
| 2026 May 02 17:57 | 2026 Apr 30 14:24:18 | 99.2657 | 0.00938 | 16.7081 | 118.2766 | 242.7908 | 14.16235 | – |
| 2026 May 01 17:56 | 2026 Apr 30 14:24:18 | 99.2657 | 0.00938 | 16.7081 | 118.2766 | 242.7908 | 14.16235 | – |
| 2026 Apr 30 17:56 | 2026 Apr 30 14:24:18 | 99.2657 | 0.00938 | 16.7081 | 118.2766 | 242.7908 | 14.16235 | – |
| 2026 Apr 29 17:57 | 2026 Apr 24 07:29:41 | 99.2651 | 0.00943 | 16.2720 | 135.4703 | 242.7908 | 14.16235 | – |
| 2026 Apr 28 17:56 | 2026 Apr 24 07:29:41 | 99.2651 | 0.00943 | 16.2720 | 135.4703 | 242.7908 | 14.16235 | – |
| 2026 Apr 27 17:58 | 2026 Apr 24 07:29:41 | 99.2651 | 0.00943 | 16.2720 | 135.4703 | 242.7908 | 14.16235 | – |
| 2026 Apr 26 17:58 | 2026 Apr 24 07:29:41 | 99.2651 | 0.00943 | 16.2720 | 135.4703 | 242.7908 | 14.16235 | – |
| 2026 Apr 25 17:58 | 2026 Apr 24 07:29:41 | 99.2651 | 0.00943 | 16.2720 | 135.4703 | 242.7908 | 14.16235 | – |
| 2026 Apr 24 17:59 | 2026 Apr 24 07:29:41 | 99.2651 | 0.00943 | 16.2720 | 135.4703 | 242.7908 | 14.16235 | – |
| 2026 Apr 23 17:57 | 2026 Apr 19 07:06:02 | 99.2651 | 0.00945 | 15.9241 | 149.1545 | 242.7908 | 14.16235 | – |
| 2026 Apr 22 17:57 | 2026 Apr 19 07:06:02 | 99.2651 | 0.00945 | 15.9241 | 149.1545 | 242.7908 | 14.16235 | – |
| 2026 Apr 21 17:57 | 2026 Apr 19 07:06:02 | 99.2651 | 0.00945 | 15.9241 | 149.1545 | 242.7908 | 14.16235 | – |
| 2026 Apr 20 17:57 | 2026 Apr 19 07:06:02 | 99.2651 | 0.00945 | 15.9241 | 149.1545 | 242.7908 | 14.16235 | – |
| 2026 Apr 19 17:58 | 2026 Apr 19 07:06:02 | 99.2651 | 0.00945 | 15.9241 | 149.1545 | 242.7908 | 14.16235 | – |
| 2026 Apr 18 17:56 | 2026 Apr 13 06:57:44 | 99.2629 | 0.00946 | 15.5077 | 165.5415 | 242.7908 | 14.16235 | – |
| 2026 Apr 16 17:57 | 2026 Apr 13 06:57:44 | 99.2629 | 0.00946 | 15.5077 | 165.5415 | 242.7908 | 14.16235 | – |
| 2026 Apr 14 17:57 | 2026 Apr 13 06:57:44 | 99.2629 | 0.00946 | 15.5077 | 165.5415 | 242.7908 | 14.16235 | – |
| 2026 Apr 13 17:57 | 2026 Apr 13 06:57:44 | 99.2629 | 0.00946 | 15.5077 | 165.5415 | 242.7908 | 14.16235 | – |
| 2026 Apr 12 17:57 | 2026 Apr 07 20:23:10 | 99.2638 | 0.00945 | 15.1305 | 180.3260 | 242.7908 | 14.16235 | – |
| 2026 Apr 11 17:57 | 2026 Apr 07 20:23:10 | 99.2638 | 0.00945 | 15.1305 | 180.3260 | 242.7908 | 14.16235 | – |
| 2026 Apr 10 17:58 | 2026 Apr 07 20:23:10 | 99.2638 | 0.00945 | 15.1305 | 180.3260 | 242.7908 | 14.16235 | – |
| 2026 Apr 09 18:01 | 2026 Apr 07 20:23:10 | 99.2638 | 0.00945 | 15.1305 | 180.3260 | 242.7908 | 14.16235 | – |
| 2026 Apr 08 17:57 | 2026 Apr 07 20:23:10 | 99.2638 | 0.00945 | 15.1305 | 180.3260 | 242.7908 | 14.16235 | – |
| 2026 Apr 07 17:57 | 2026 Apr 01 06:40:07 | 99.2631 | 0.00942 | 14.6750 | 198.2509 | 242.7908 | 14.16235 | – |